createdAt,value
2018-12-27T00:01:27.634Z,67.96
2018-12-27T00:03:56.187Z,67.43
2018-12-27T00:06:24.778Z,67.16
2018-12-27T00:08:53.358Z,66.83
2018-12-27T00:11:21.874Z,66.32
2018-12-27T00:13:50.571Z,67.95
2018-12-27T00:16:19.173Z,67.08
2018-12-27T00:18:47.706Z,65.39
2018-12-27T00:21:16.255Z,64.03
2018-12-27T00:23:44.871Z,64.67
2018-12-27T00:26:13.444Z,67.80
2018-12-27T00:28:41.950Z,67.96
2018-12-27T00:31:10.582Z,67.58
2018-12-27T00:33:39.196Z,67.82
2018-12-27T00:36:07.845Z,67.82
2018-12-27T00:38:36.543Z,67.10
2018-12-27T00:41:05.121Z,67.12
2018-12-27T00:43:33.713Z,67.56
2018-12-27T00:46:02.412Z,67.14
2018-12-27T00:48:31.034Z,66.27
2018-12-27T00:50:59.607Z,67.72
2018-12-27T00:53:28.474Z,66.93
2018-12-27T00:55:57.100Z,66.07
2018-12-27T00:58:25.667Z,66.10
2018-12-27T01:00:54.266Z,66.10
2018-12-27T01:03:22.835Z,66.12
2018-12-27T01:05:51.467Z,67.17
2018-12-27T01:08:20.082Z,66.72
2018-12-27T01:10:48.654Z,67.65
2018-12-27T01:13:17.233Z,66.22
2018-12-27T01:15:45.835Z,66.50
2018-12-27T01:18:14.602Z,66.72
2018-12-27T01:20:43.219Z,65.95
2018-12-27T01:23:11.795Z,65.68
2018-12-27T01:25:40.425Z,67.73
2018-12-27T01:28:08.987Z,66.12
2018-12-27T01:30:37.590Z,65.19
2018-12-27T01:33:06.229Z,64.98
2018-12-27T01:35:34.827Z,64.98
2018-12-27T01:38:03.405Z,65.35
2018-12-27T01:40:31.995Z,65.54
2018-12-27T01:43:00.707Z,66.54
2018-12-27T01:45:29.319Z,66.76
2018-12-27T01:47:57.884Z,66.29
2018-12-27T01:50:26.467Z,66.39
2018-12-27T01:52:55.863Z,66.05
2018-12-27T01:55:24.463Z,66.45
2018-12-27T01:57:53.083Z,65.80
2018-12-27T02:00:21.696Z,67.75
2018-12-27T02:02:50.310Z,67.21
2018-12-27T02:05:18.873Z,65.16
2018-12-27T02:07:48.502Z,63.63
2018-12-27T02:10:17.096Z,63.47
2018-12-27T02:12:45.698Z,65.73
2018-12-27T02:15:14.260Z,65.05
2018-12-27T02:17:42.888Z,66.57
2018-12-27T02:20:11.480Z,66.69
2018-12-27T02:22:40.114Z,65.98
2018-12-27T02:25:08.723Z,67.04
2018-12-27T02:27:37.408Z,66.43
2018-12-27T02:30:05.974Z,65.93
2018-12-27T02:32:34.563Z,65.20
2018-12-27T02:35:03.261Z,66.06
2018-12-27T02:37:31.853Z,64.60
2018-12-27T02:40:00.508Z,64.60
2018-12-27T02:42:29.083Z,65.15
2018-12-27T02:44:57.696Z,64.11
2018-12-27T02:47:26.271Z,65.26
2018-12-27T02:49:54.880Z,65.55
2018-12-27T02:52:23.544Z,65.94
2018-12-27T02:54:52.145Z,67.22
2018-12-27T02:57:20.711Z,67.07
2018-12-27T02:59:49.275Z,66.30
2018-12-27T03:02:18.042Z,66.83
2018-12-27T03:04:46.598Z,66.70
2018-12-27T03:07:15.204Z,66.58
2018-12-27T03:09:43.779Z,66.04
2018-12-27T03:12:12.411Z,71.39
2018-12-27T03:14:41.003Z,67.58
2018-12-27T03:17:09.638Z,65.40
2018-12-27T03:19:38.239Z,63.43
2018-12-27T03:22:06.914Z,63.81
2018-12-27T03:24:35.513Z,66.11
2018-12-27T03:27:04.072Z,67.13
2018-12-27T03:29:32.653Z,67.93
2018-12-27T03:32:01.474Z,68.06
2018-12-27T03:34:30.098Z,67.58
2018-12-27T03:36:58.682Z,67.73
2018-12-27T03:39:27.273Z,67.85
2018-12-27T03:41:55.849Z,67.49
2018-12-27T03:44:24.834Z,66.96
2018-12-27T03:46:53.532Z,68.79
2018-12-27T03:49:22.230Z,69.39
2018-12-27T03:51:50.806Z,65.36
2018-12-27T03:54:19.398Z,64.88
2018-12-27T03:56:48.073Z,65.90
2018-12-27T03:59:16.659Z,68.14
2018-12-27T04:01:45.284Z,69.22
2018-12-27T04:04:13.854Z,69.72
2018-12-27T04:06:42.412Z,69.95
2018-12-27T04:09:11.028Z,69.79
2018-12-27T04:11:39.600Z,69.12
2018-12-27T04:14:08.206Z,68.44
2018-12-27T04:16:36.660Z,68.17
2018-12-27T04:19:05.269Z,68.00
2018-12-27T04:21:33.927Z,67.62
2018-12-27T04:24:02.783Z,75.20
2018-12-27T04:26:31.366Z,68.83
2018-12-27T04:28:59.792Z,67.03
2018-12-27T04:31:28.618Z,67.44
2018-12-27T04:33:57.591Z,68.59
2018-12-27T04:36:26.563Z,70.34
2018-12-27T04:38:55.015Z,70.34
2018-12-27T04:41:23.585Z,70.92
2018-12-27T04:43:52.677Z,70.27
2018-12-27T04:46:21.274Z,70.00
2018-12-27T04:48:49.799Z,69.46
2018-12-27T04:51:18.424Z,69.87
2018-12-27T04:53:46.906Z,69.53
2018-12-27T04:56:15.522Z,70.02
2018-12-27T04:58:43.976Z,72.03
2018-12-27T05:01:12.594Z,71.55
2018-12-27T05:03:41.152Z,68.00
2018-12-27T05:06:09.610Z,66.86
2018-12-27T05:08:38.174Z,68.83
2018-12-27T05:11:06.632Z,69.43
2018-12-27T05:13:35.188Z,70.23
2018-12-27T05:16:03.701Z,70.21
2018-12-27T05:18:32.276Z,70.72
2018-12-27T05:21:00.883Z,70.27
2018-12-27T05:23:29.507Z,69.50
2018-12-27T05:25:58.057Z,69.22
2018-12-27T05:28:26.594Z,68.69
2018-12-27T05:30:55.152Z,68.02
2018-12-27T05:33:23.661Z,69.21
2018-12-27T05:35:52.199Z,74.01
2018-12-27T05:38:20.665Z,67.98
2018-12-27T05:40:49.273Z,67.22
2018-12-27T05:43:17.813Z,67.88
2018-12-27T05:45:47.084Z,69.90
2018-12-27T05:48:15.711Z,71.08
2018-12-27T05:50:44.199Z,72.17
2018-12-27T05:53:12.844Z,71.91
2018-12-27T05:55:41.389Z,71.22
2018-12-27T05:58:09.851Z,70.67
2018-12-27T06:00:38.378Z,70.36
2018-12-27T06:03:06.887Z,70.27
2018-12-27T06:05:35.442Z,69.71
2018-12-27T06:08:04.039Z,69.84
2018-12-27T06:10:32.541Z,75.49
2018-12-27T06:13:01.025Z,72.95
2018-12-27T06:15:29.561Z,68.77
2018-12-27T06:17:58.151Z,68.67
2018-12-27T06:20:26.619Z,69.02
2018-12-27T06:22:55.249Z,70.74
2018-12-27T06:25:23.789Z,71.29
2018-12-27T06:27:52.425Z,71.71
2018-12-27T06:30:20.903Z,71.19
2018-12-27T06:32:49.398Z,70.82
2018-12-27T06:35:18.122Z,70.46
2018-12-27T06:37:46.762Z,70.83
2018-12-27T06:40:15.320Z,70.25
2018-12-27T06:42:43.832Z,70.27
2018-12-27T06:45:12.434Z,69.95
2018-12-27T06:47:40.976Z,76.54
2018-12-27T06:50:09.571Z,70.22
2018-12-27T06:52:38.101Z,67.97
2018-12-27T06:55:06.716Z,68.58
2018-12-27T06:57:35.227Z,70.43
2018-12-27T07:00:05.460Z,72.12
2018-12-27T07:02:34.156Z,71.88
2018-12-27T07:05:02.764Z,71.43
2018-12-27T07:07:31.380Z,70.04
2018-12-27T07:09:59.896Z,70.04
2018-12-27T07:12:28.449Z,69.58
2018-12-27T07:14:56.918Z,69.08
2018-12-27T07:17:25.511Z,68.78
2018-12-27T07:19:54.070Z,68.49
2018-12-27T07:22:22.624Z,76.57
2018-12-27T07:24:51.203Z,70.16
2018-12-27T07:27:19.761Z,67.34
2018-12-27T07:29:48.390Z,67.38
2018-12-27T07:32:16.906Z,69.08
2018-12-27T07:34:45.504Z,70.53
2018-12-27T07:37:14.052Z,70.68
2018-12-27T07:39:42.599Z,70.34
2018-12-27T07:42:11.133Z,70.01
2018-12-27T07:44:39.659Z,69.94
2018-12-27T07:47:08.332Z,69.86
2018-12-27T07:49:36.902Z,69.84
2018-12-27T07:52:05.599Z,69.36
2018-12-27T07:54:34.073Z,69.23
2018-12-27T07:57:02.618Z,70.06
2018-12-27T07:59:31.137Z,73.60
2018-12-27T08:01:59.769Z,68.76
2018-12-27T08:04:28.279Z,68.31
2018-12-27T08:06:56.762Z,67.94
2018-12-27T08:09:25.336Z,69.40
2018-12-27T08:11:53.874Z,70.05
2018-12-27T08:14:22.557Z,69.81
2018-12-27T08:16:51.189Z,70.24
2018-12-27T08:19:19.832Z,70.53
2018-12-27T08:21:48.333Z,70.21
2018-12-27T08:24:16.954Z,70.12
2018-12-27T08:26:45.486Z,69.80
2018-12-27T08:29:14.116Z,69.40
2018-12-27T08:31:42.737Z,69.09
2018-12-27T08:34:11.282Z,75.17
2018-12-27T08:36:39.833Z,69.44
2018-12-27T08:39:08.338Z,67.83
2018-12-27T08:41:36.928Z,67.65
2018-12-27T08:44:05.542Z,67.60
2018-12-27T08:46:34.161Z,67.73
2018-12-27T08:49:02.759Z,68.62
2018-12-27T08:51:31.328Z,68.79
2018-12-27T08:53:59.991Z,68.22
2018-12-27T08:56:28.545Z,68.64
2018-12-27T08:58:57.072Z,67.41
2018-12-27T09:01:25.625Z,67.66
2018-12-27T09:03:54.146Z,66.85
2018-12-27T09:06:22.645Z,67.25
2018-12-27T09:08:51.216Z,67.97
2018-12-27T09:11:19.743Z,67.06
2018-12-27T09:13:48.320Z,64.12
2018-12-27T09:16:16.846Z,63.82
2018-12-27T09:18:45.404Z,63.69
2018-12-27T09:21:13.992Z,64.03
2018-12-27T09:23:42.547Z,64.15
2018-12-27T09:26:11.085Z,64.55
2018-12-27T09:28:39.684Z,64.35
2018-12-27T09:31:08.232Z,64.87
2018-12-27T09:33:36.777Z,65.06
2018-12-27T09:36:05.350Z,65.07
2018-12-27T09:38:33.912Z,63.77
2018-12-27T09:41:02.949Z,63.70
2018-12-27T09:43:31.521Z,63.73
2018-12-27T09:46:00.141Z,64.09
2018-12-27T09:48:28.811Z,62.81
2018-12-27T09:50:57.350Z,62.25
2018-12-27T09:53:25.870Z,60.63
2018-12-27T09:55:54.453Z,61.02
2018-12-27T09:58:23.008Z,61.87
2018-12-27T10:00:51.448Z,62.46
2018-12-27T10:03:19.993Z,62.68
2018-12-27T10:05:48.601Z,62.51
2018-12-27T10:08:17.122Z,61.68
2018-12-27T10:10:45.643Z,61.03
2018-12-27T10:13:14.245Z,60.93
2018-12-27T10:15:42.802Z,60.31
2018-12-27T10:18:11.408Z,61.88
2018-12-27T10:20:39.975Z,63.24
2018-12-27T10:23:08.508Z,60.35
2018-12-27T10:25:37.087Z,59.10
2018-12-27T10:28:06.037Z,59.02
2018-12-27T10:30:34.698Z,58.97
2018-12-27T10:33:03.313Z,59.29
2018-12-27T10:35:31.905Z,60.48
2018-12-27T10:38:00.445Z,59.07
2018-12-27T10:40:28.975Z,58.95
2018-12-27T10:42:57.531Z,60.55
2018-12-27T10:45:26.005Z,59.36
2018-12-27T10:47:54.503Z,60.67
2018-12-27T10:50:23.134Z,59.97
2018-12-27T10:52:51.719Z,58.52
2018-12-27T10:55:20.275Z,61.35
2018-12-27T10:57:48.912Z,59.34
2018-12-27T11:00:17.602Z,58.82
2018-12-27T11:02:46.242Z,57.28
2018-12-27T11:05:14.822Z,57.29
2018-12-27T11:07:43.543Z,56.63
2018-12-27T11:10:12.070Z,58.07
2018-12-27T11:12:40.741Z,58.59
2018-12-27T11:15:09.516Z,57.87
2018-12-27T11:17:37.957Z,58.06
2018-12-27T11:20:06.787Z,56.67
2018-12-27T11:22:35.353Z,57.73
2018-12-27T11:25:04.147Z,57.83
2018-12-27T11:27:32.663Z,58.30
2018-12-27T11:30:01.279Z,59.82
2018-12-27T11:32:29.918Z,58.48
2018-12-27T11:34:58.447Z,56.90
2018-12-27T11:37:26.942Z,56.29
2018-12-27T11:39:55.490Z,56.39
2018-12-27T11:42:24.074Z,55.59
2018-12-27T11:44:52.665Z,56.26
2018-12-27T11:47:21.182Z,56.33
2018-12-27T11:49:49.767Z,55.96
2018-12-27T11:52:18.237Z,56.42
2018-12-27T11:54:46.747Z,56.54
2018-12-27T11:57:15.306Z,55.75
2018-12-27T11:59:43.780Z,55.51
2018-12-27T12:02:12.270Z,56.02
2018-12-27T12:04:40.898Z,57.32
2018-12-27T12:07:09.508Z,57.68
2018-12-27T12:09:38.109Z,57.27
2018-12-27T12:12:06.689Z,55.57
2018-12-27T12:14:35.214Z,54.57
2018-12-27T12:17:03.680Z,54.86
2018-12-27T12:19:32.226Z,55.06
2018-12-27T12:22:00.805Z,54.10
2018-12-27T12:24:29.311Z,54.41
2018-12-27T12:26:57.945Z,54.80
2018-12-27T12:29:26.545Z,56.24
2018-12-27T12:31:56.357Z,56.27
2018-12-27T12:34:24.912Z,56.44
2018-12-27T12:36:54.120Z,56.62
2018-12-27T12:39:22.701Z,57.12
2018-12-27T12:41:51.324Z,56.47
2018-12-27T12:44:19.835Z,56.26
2018-12-27T12:46:48.424Z,54.75
2018-12-27T12:49:16.995Z,55.58
2018-12-27T12:51:45.748Z,54.72
2018-12-27T12:54:14.233Z,54.71
2018-12-27T12:56:42.851Z,56.20
2018-12-27T12:59:11.362Z,54.66
2018-12-27T13:01:39.986Z,55.29
2018-12-27T13:04:08.626Z,56.93
2018-12-27T13:06:37.222Z,57.30
2018-12-27T13:09:07.130Z,57.56
2018-12-27T13:11:35.751Z,57.64
2018-12-27T13:14:04.398Z,57.49
2018-12-27T13:16:33.206Z,58.71
2018-12-27T13:19:01.904Z,57.02
2018-12-27T13:21:30.447Z,56.28
2018-12-27T13:23:59.048Z,56.47
2018-12-27T13:26:27.579Z,57.32
2018-12-27T13:28:56.285Z,57.07
2018-12-27T13:31:24.868Z,56.87
2018-12-27T13:33:53.485Z,57.62
2018-12-27T13:36:25.304Z,56.49
2018-12-27T13:38:52.274Z,57.09
2018-12-27T13:41:20.846Z,56.50
2018-12-27T13:43:49.540Z,57.50
2018-12-27T13:46:18.099Z,56.85
2018-12-27T13:48:46.742Z,57.15
2018-12-27T13:51:15.326Z,60.26
2018-12-27T13:53:44.408Z,57.04
2018-12-27T13:56:13.013Z,54.50
2018-12-27T13:58:41.498Z,56.10
2018-12-27T14:01:10.119Z,55.70
2018-12-27T14:03:38.665Z,56.85
2018-12-27T14:06:07.211Z,56.85
2018-12-27T14:08:35.922Z,56.97
2018-12-27T14:11:04.513Z,57.48
2018-12-27T14:13:33.166Z,58.44
2018-12-27T14:16:01.817Z,58.64
2018-12-27T14:18:30.252Z,58.09
2018-12-27T14:20:58.846Z,57.32
2018-12-27T14:23:27.412Z,57.42
2018-12-27T14:25:56.016Z,58.31
2018-12-27T14:28:24.501Z,57.19
2018-12-27T14:30:53.096Z,54.76
2018-12-27T14:33:21.683Z,56.81
2018-12-27T14:35:50.278Z,55.85
2018-12-27T14:38:18.788Z,56.57
2018-12-27T14:40:47.292Z,56.68
2018-12-27T14:43:15.922Z,59.10
2018-12-27T14:45:44.609Z,59.21
2018-12-27T14:48:13.227Z,59.60
2018-12-27T14:50:41.721Z,60.08
2018-12-27T14:53:10.377Z,59.96
2018-12-27T14:55:39.079Z,59.22
2018-12-27T14:58:07.618Z,58.53
2018-12-27T15:00:36.271Z,60.15
2018-12-27T15:03:04.887Z,61.74
2018-12-27T15:07:54.711Z,58.40
2018-12-27T15:10:23.322Z,59.11
2018-12-27T15:12:51.828Z,60.42
2018-12-27T15:15:20.446Z,61.63
2018-12-27T15:17:49.049Z,63.08
2018-12-27T15:20:17.592Z,63.30
2018-12-27T15:22:46.257Z,62.86
2018-12-27T15:25:14.892Z,62.35
2018-12-27T15:27:43.462Z,62.35
2018-12-27T15:30:12.050Z,62.11
2018-12-27T15:32:40.636Z,61.69
2018-12-27T15:35:09.168Z,61.62
2018-12-27T15:37:37.834Z,67.80
2018-12-27T15:40:07.469Z,62.41
2018-12-27T15:42:36.091Z,61.01
2018-12-27T15:45:05.122Z,61.16
2018-12-27T15:47:33.652Z,62.02
2018-12-27T15:50:02.204Z,64.21
2018-12-27T15:52:30.780Z,64.90
2018-12-27T15:54:59.474Z,64.66
2018-12-27T15:57:28.059Z,64.25
2018-12-27T15:59:56.670Z,63.75
2018-12-27T16:02:25.334Z,63.30
2018-12-27T16:04:53.857Z,62.95
2018-12-27T16:07:22.491Z,62.85
2018-12-27T16:09:50.962Z,63.39
2018-12-27T16:12:19.556Z,67.64
2018-12-27T16:14:48.036Z,66.08
2018-12-27T16:17:16.516Z,62.50
2018-12-27T16:19:45.185Z,61.56
2018-12-27T16:22:13.746Z,62.44
2018-12-27T16:24:42.399Z,64.86
2018-12-27T16:27:10.945Z,65.75
2018-12-27T16:29:39.576Z,65.82
2018-12-27T16:32:08.271Z,65.38
2018-12-27T16:34:36.890Z,64.72
2018-12-27T16:37:08.873Z,64.29
2018-12-27T16:39:35.847Z,63.90
2018-12-27T16:42:04.482Z,63.54
2018-12-27T16:44:33.220Z,63.10
2018-12-27T16:47:02.006Z,65.12
2018-12-27T16:49:30.573Z,67.73
2018-12-27T16:51:59.252Z,63.08
2018-12-27T16:54:27.959Z,62.17
2018-12-27T16:56:56.650Z,63.30
2018-12-27T16:59:25.382Z,64.73
2018-12-27T17:01:54.053Z,65.97
2018-12-27T17:04:22.699Z,66.64
2018-12-27T17:06:51.467Z,66.87
2018-12-27T17:09:20.163Z,66.16
2018-12-27T17:11:49.867Z,65.49
2018-12-27T17:14:18.640Z,64.91
2018-12-27T17:16:47.255Z,64.59
2018-12-27T17:19:15.968Z,64.59
2018-12-27T17:21:45.551Z,64.42
2018-12-27T17:24:14.222Z,68.93
2018-12-27T17:26:42.848Z,66.38
2018-12-27T17:29:11.491Z,63.82
2018-12-27T17:31:40.094Z,64.35
2018-12-27T17:34:08.843Z,65.49
2018-12-27T17:36:37.530Z,67.18
2018-12-27T17:39:07.020Z,67.38
2018-12-27T17:41:35.683Z,67.58
2018-12-27T17:44:04.400Z,67.34
2018-12-27T17:46:33.171Z,66.49
2018-12-27T17:49:01.790Z,66.30
2018-12-27T17:51:30.555Z,65.76
2018-12-27T17:53:59.182Z,65.22
2018-12-27T17:56:27.902Z,65.04
2018-12-27T17:58:56.640Z,66.61
2018-12-27T18:01:25.327Z,68.26
2018-12-27T18:03:53.981Z,64.67
2018-12-27T18:06:22.590Z,64.48
2018-12-27T18:08:51.213Z,65.34
2018-12-27T18:11:19.859Z,66.51
2018-12-27T18:13:48.451Z,67.65
2018-12-27T18:16:17.122Z,68.17
2018-12-27T18:18:45.819Z,68.06
2018-12-27T18:21:14.476Z,67.56
2018-12-27T18:23:43.188Z,67.29
2018-12-27T18:26:14.694Z,66.43
2018-12-27T18:28:43.418Z,66.22
2018-12-27T18:31:12.032Z,66.07
2018-12-27T18:33:40.617Z,66.44
2018-12-27T18:36:09.470Z,70.36
2018-12-27T18:38:38.256Z,66.74
2018-12-27T18:41:07.868Z,64.49
2018-12-27T18:43:36.470Z,64.91
2018-12-27T18:46:05.032Z,66.66
2018-12-27T18:48:33.624Z,68.04
2018-12-27T18:51:02.350Z,68.22
2018-12-27T18:53:30.949Z,67.68
2018-12-27T18:55:59.604Z,67.13
2018-12-27T18:58:28.234Z,66.99
2018-12-27T19:00:56.830Z,66.79
2018-12-27T19:03:25.562Z,66.73
2018-12-27T19:05:54.176Z,66.30
2018-12-27T19:08:22.812Z,66.27
2018-12-27T19:11:27.827Z,74.28
2018-12-27T19:13:56.520Z,68.32
2018-12-27T19:16:25.206Z,66.08
2018-12-27T19:18:53.856Z,65.85
2018-12-27T19:21:22.526Z,67.44
2018-12-27T19:23:51.173Z,70.04
2018-12-27T19:26:19.716Z,69.50
2018-12-27T19:28:48.352Z,68.82
2018-12-27T19:31:17.146Z,68.26
2018-12-27T19:33:46.246Z,67.47
2018-12-27T19:36:14.917Z,67.47
2018-12-27T19:38:43.582Z,67.02
2018-12-27T19:41:12.257Z,67.39
2018-12-27T19:43:40.903Z,68.33
2018-12-27T19:46:09.567Z,72.46
2018-12-27T19:48:38.304Z,69.75
2018-12-27T19:51:07.055Z,67.29
2018-12-27T19:53:35.748Z,65.79
2018-12-27T19:56:04.412Z,67.50
2018-12-27T19:58:33.066Z,68.73
2018-12-27T20:01:01.706Z,69.23
2018-12-27T20:03:30.411Z,69.06
2018-12-27T20:05:58.903Z,68.86
2018-12-27T20:08:27.674Z,68.57
2018-12-27T20:10:56.441Z,67.83
2018-12-27T20:13:25.191Z,67.92
2018-12-27T20:15:53.850Z,67.33
2018-12-27T20:18:23.697Z,68.26
2018-12-27T20:20:52.407Z,69.48
2018-12-27T20:23:21.014Z,70.07
2018-12-27T20:25:49.760Z,66.22
2018-12-27T20:28:18.351Z,66.33
2018-12-27T20:30:46.906Z,68.19
2018-12-27T20:33:16.545Z,69.96
2018-12-27T20:35:48.035Z,70.35
2018-12-27T20:38:16.833Z,69.48
2018-12-27T20:40:45.481Z,68.70
2018-12-27T20:43:14.151Z,68.20
2018-12-27T20:45:42.836Z,67.63
2018-12-27T20:48:11.443Z,68.22
2018-12-27T20:50:40.189Z,67.60
2018-12-27T20:53:08.917Z,67.89
2018-12-27T20:55:37.530Z,67.29
2018-12-27T20:58:06.155Z,72.38
2018-12-27T21:00:34.872Z,67.38
2018-12-27T21:03:03.592Z,68.58
2018-12-27T21:05:32.309Z,66.98
2018-12-27T21:08:00.988Z,67.95
2018-12-27T21:10:29.758Z,68.91
2018-12-27T21:12:58.300Z,69.79
2018-12-27T21:15:26.989Z,69.57
2018-12-27T21:17:57.147Z,69.02
2018-12-27T21:20:25.841Z,68.52
2018-12-27T21:22:54.449Z,68.03
2018-12-27T21:25:23.171Z,67.90
2018-12-27T21:27:51.914Z,67.58
2018-12-27T21:30:20.478Z,67.88
2018-12-27T21:32:49.180Z,72.34
2018-12-27T21:35:17.793Z,69.42
2018-12-27T21:37:47.125Z,66.64
2018-12-27T21:40:15.811Z,66.48
2018-12-27T21:42:44.458Z,67.89
2018-12-27T21:45:14.617Z,69.47
2018-12-27T21:47:43.325Z,70.04
2018-12-27T21:50:11.910Z,69.78
2018-12-27T21:52:40.461Z,69.10
2018-12-27T21:55:09.040Z,68.43
2018-12-27T21:57:37.736Z,67.88
2018-12-27T22:00:09.268Z,67.31
2018-12-27T22:02:38.012Z,67.26
2018-12-27T22:05:06.605Z,66.64
2018-12-27T22:07:35.405Z,68.95
2018-12-27T22:10:06.624Z,69.92
2018-12-27T22:12:35.257Z,66.94
2018-12-27T22:15:03.847Z,66.22
2018-12-27T22:17:32.417Z,68.69
2018-12-27T22:20:00.968Z,69.77
2018-12-27T22:22:29.611Z,70.37
2018-12-27T22:24:58.170Z,70.64
2018-12-27T22:27:26.745Z,70.10
2018-12-27T22:29:55.305Z,69.76
2018-12-27T22:32:23.821Z,69.58
2018-12-27T22:34:52.425Z,69.71
2018-12-27T22:37:20.950Z,68.95
2018-12-27T22:39:49.455Z,67.91
2018-12-27T22:42:18.045Z,68.82
2018-12-27T22:44:47.259Z,74.83
2018-12-27T22:47:15.857Z,68.35
2018-12-27T22:49:44.357Z,67.29
2018-12-27T22:52:12.940Z,68.22
2018-12-27T22:54:41.626Z,69.76
2018-12-27T22:57:10.215Z,70.81
2018-12-27T22:59:38.854Z,71.62
2018-12-27T23:02:07.530Z,70.72
2018-12-27T23:04:36.098Z,70.38
2018-12-27T23:07:04.654Z,69.90
2018-12-27T23:09:33.235Z,69.32
2018-12-27T23:12:01.862Z,68.96
2018-12-27T23:14:30.458Z,68.66
2018-12-27T23:16:58.949Z,68.76
2018-12-27T23:19:27.574Z,70.32
2018-12-27T23:21:56.162Z,70.74
2018-12-27T23:24:24.676Z,68.33
2018-12-27T23:26:53.274Z,67.42
2018-12-27T23:29:21.772Z,68.70
2018-12-27T23:31:50.338Z,70.11
2018-12-27T23:34:18.855Z,70.76
2018-12-27T23:36:47.546Z,69.96
2018-12-27T23:39:16.135Z,69.00
2018-12-27T23:41:44.587Z,69.00
2018-12-27T23:44:13.226Z,68.65
2018-12-27T23:46:41.696Z,68.53
2018-12-27T23:49:10.244Z,69.20
2018-12-27T23:51:38.889Z,69.61
2018-12-27T23:54:07.330Z,70.53
2018-12-27T23:56:35.954Z,73.65
2018-12-27T23:59:04.557Z,69.79
